Terminal Aerodrome Forecast
Issued by NWS Indianapolis, IN

Home | Current Version | Previous Version | Text Only | Print | Product List | Glossary On
Versions: 1 2 3 4 5 6 7 8 9 10 11 12 13 14 15 16 17 18 19 20 21 22 23 24 25 26 27
960
FTUS43 KIND 110520
TAFIND
TAF
KIND 110520Z 1106/1212 29005KT P6SM BKN100
     FM111400 30007KT P6SM FEW025 BKN250
     FM120000 27004KT P6SM SCT100 BKN250
     FM120400 21003KT P6SM OVC080=

USA.gov is the U.S. government's official web portal to all federal, state and local government web resources and services.